Time;durP1;ratioP1;P1;durP2;ratioP2;P2;SDS_P1;SDS_P2;PMS_P1;PMS_P2;Temp;Humidity;BMP_temperature;BMP_pressure;BME280_temperature;BME280_humidity;BME280_pressure;Samples;Min_cycle;Max_cycle;Signal;HPM_P1;HPM_P2
2021/01/30 00:00:09;;;;;;;37.38;24.75;;;;;;;-1.03;75.83;98551.80;1617612;87;25968;-84
2021/01/30 00:02:35;;;;;;;36.90;23.67;;;;;;;-1.05;75.69;98551.13;1619820;87;26765;-86
2021/01/30 00:05:01;;;;;;;35.88;23.27;;;;;;;-1.11;75.68;98554.23;1592911;87;25893;-85
2021/01/30 00:07:28;;;;;;;38.60;25.20;;;;;;;-1.09;75.90;98549.79;1619438;87;25849;-84
2021/01/30 00:09:54;;;;;;;37.48;23.92;;;;;;;-1.05;76.00;98543.91;1617644;87;25876;-85
2021/01/30 00:12:20;;;;;;;35.92;23.38;;;;;;;-1.01;75.97;98550.37;1618087;87;25832;-84
2021/01/30 00:14:46;;;;;;;36.68;22.37;;;;;;;-1.00;75.94;98540.47;1617573;87;25780;-85
2021/01/30 00:17:13;;;;;;;33.18;22.77;;;;;;;-0.98;76.03;98539.39;1619759;87;26629;-85
2021/01/30 00:19:40;;;;;;;33.33;21.97;;;;;;;-0.93;76.08;98542.80;1618158;87;26434;-84
2021/01/30 00:22:11;;;;;;;35.95;22.35;;;;;;;-0.88;76.12;98544.48;1618658;87;26622;-85
2021/01/30 00:24:42;;;;;;;32.15;22.25;;;;;;;-0.83;76.12;98538.95;1616635;87;25963;-85
2021/01/30 00:27:06;;;;;;;30.60;21.87;;;;;;;-0.79;76.14;98539.00;1616682;87;26580;-85
2021/01/30 00:29:33;;;;;;;30.27;22.25;;;;;;;-0.81;76.01;98530.66;1618697;87;25791;-84
2021/01/30 00:32:01;;;;;;;31.48;21.73;;;;;;;-0.81;76.08;98524.25;1619948;87;25911;-83
2021/01/30 00:34:31;;;;;;;30.00;21.17;;;;;;;-0.74;76.11;98522.73;1617444;87;25787;-85
2021/01/30 00:37:11;;;;;;;32.93;21.65;;;;;;;-0.79;75.86;98530.86;1616860;87;25730;-84
2021/01/30 00:39:39;;;;;;;31.77;21.62;;;;;;;-0.78;76.06;98527.34;1618025;87;25944;-84
2021/01/30 00:42:08;;;;;;;31.73;21.37;;;;;;;-0.71;76.12;98527.13;1617457;87;25908;-83
2021/01/30 00:44:35;;;;;;;33.80;22.70;;;;;;;-0.65;76.04;98528.33;1620431;87;26383;-83
2021/01/30 00:47:01;;;;;;;32.73;22.07;;;;;;;-0.64;76.08;98525.28;1619297;87;26155;-84
2021/01/30 00:49:27;;;;;;;34.75;23.10;;;;;;;-0.60;76.00;98529.17;1618350;87;25433;-84
2021/01/30 00:51:54;;;;;;;30.25;21.25;;;;;;;-0.60;75.96;98524.88;1616454;87;25891;-83
2021/01/30 00:54:21;;;;;;;31.55;21.42;;;;;;;-0.57;76.04;98522.51;1616413;87;25719;-84
2021/01/30 00:56:53;;;;;;;29.92;22.40;;;;;;;-0.57;75.96;98524.59;1616251;87;26466;-83
2021/01/30 00:59:20;;;;;;;32.53;23.45;;;;;;;-0.56;75.96;98521.06;1592492;87;26097;-83
2021/01/30 01:01:49;;;;;;;29.12;21.15;;;;;;;-0.48;76.03;98521.66;1617884;87;25775;-83
2021/01/30 01:04:20;;;;;;;32.08;20.65;;;;;;;-0.58;75.34;98515.74;1619952;86;25914;-84
2021/01/30 01:06:48;;;;;;;30.15;20.25;;;;;;;-0.75;75.19;98520.64;1619655;87;44595;-84
2021/01/30 01:09:15;;;;;;;30.55;20.50;;;;;;;-0.87;75.26;98510.67;1615248;87;25884;-84
2021/01/30 01:11:46;;;;;;;30.45;22.25;;;;;;;-0.94;75.54;98515.08;1618435;87;25652;-84
2021/01/30 01:14:12;;;;;;;32.53;22.93;;;;;;;-0.96;75.74;98516.96;1620421;87;25936;-84
2021/01/30 01:16:39;;;;;;;34.18;22.05;;;;;;;-1.01;75.80;98519.16;1617462;87;26997;-84
2021/01/30 01:19:06;;;;;;;30.80;20.92;;;;;;;-1.01;76.04;98516.59;1616562;87;25507;-84
2021/01/30 01:21:33;;;;;;;34.43;24.60;;;;;;;-0.95;76.10;98514.75;1620582;87;25768;-85
2021/01/30 01:23:59;;;;;;;32.25;22.32;;;;;;;-0.90;76.05;98518.20;1619593;87;25620;-84
2021/01/30 01:26:25;;;;;;;32.85;21.60;;;;;;;-0.86;76.17;98513.59;1616284;87;25843;-85
2021/01/30 01:28:52;;;;;;;33.75;22.67;;;;;;;-0.87;76.14;98514.52;1618237;87;26584;-85
2021/01/30 01:31:22;;;;;;;30.23;20.30;;;;;;;-0.94;76.19;98508.67;1615838;87;25883;-84
2021/01/30 01:33:49;;;;;;;33.65;21.42;;;;;;;-0.87;76.41;98511.95;1608248;87;26057;-85
2021/01/30 01:36:19;;;;;;;30.32;21.62;;;;;;;-0.82;76.48;98512.35;1607407;88;26681;-85
2021/01/30 01:38:45;;;;;;;28.12;20.57;;;;;;;-0.82;76.36;98505.94;1597834;88;25971;-85
2021/01/30 01:41:12;;;;;;;35.23;21.68;;;;;;;-0.72;76.63;98510.58;1648768;85;25735;-85
2021/01/30 01:43:39;;;;;;;34.78;23.77;;;;;;;-0.76;76.36;98512.63;1649780;86;26421;-85
2021/01/30 01:46:23;;;;;;;33.10;24.87;;;;;;;-0.74;76.27;98517.16;1649522;86;25861;-85
2021/01/30 01:49:03;;;;;;;36.35;24.85;;;;;;;-0.75;76.17;98514.23;1650679;85;25838;-85
2021/01/30 01:51:35;;;;;;;36.33;23.90;;;;;;;-0.80;76.15;98508.70;1651065;86;25918;-85
2021/01/30 01:54:05;;;;;;;32.78;22.52;;;;;;;-0.82;76.15;98509.34;1649713;86;26340;-85
2021/01/30 01:56:35;;;;;;;33.23;23.05;;;;;;;-0.82;76.27;98513.64;1648439;85;25938;-85
2021/01/30 01:59:09;;;;;;;33.00;23.50;;;;;;;-0.82;76.32;98518.77;1649811;85;30248;-85
2021/01/30 02:01:37;;;;;;;34.63;24.90;;;;;;;-0.90;76.31;98516.91;1648151;85;26559;-85
2021/01/30 02:04:08;;;;;;;31.90;23.32;;;;;;;-0.92;76.42;98513.19;1649360;86;25856;-85
2021/01/30 02:06:44;;;;;;;34.18;23.83;;;;;;;-0.97;76.38;98520.96;1650832;86;25928;-85
2021/01/30 02:09:15;;;;;;;34.70;22.98;;;;;;;-0.99;76.44;98517.72;1650092;86;25914;-85
2021/01/30 02:11:42;;;;;;;37.35;25.48;;;;;;;-0.98;76.64;98515.51;1648700;85;25899;-85
2021/01/30 02:14:10;;;;;;;35.78;24.18;;;;;;;-0.98;76.60;98518.07;1638325;86;25901;-85
2021/01/30 02:16:42;;;;;;;37.90;24.02;;;;;;;-1.01;76.58;98514.48;1648596;84;25894;-85
2021/01/30 02:19:42;;;;;;;37.60;22.95;;;;;;;-1.01;76.80;98508.06;1649060;86;26579;-83
2021/01/30 02:22:17;;;;;;;;;;;;;;;-1.04;76.89;98501.45;1651743;85;25835;-85
2021/01/30 02:25:18;;;;;;;37.65;25.08;;;;;;;-0.99;77.00;98508.75;1650872;86;25946;-84
2021/01/30 02:27:49;;;;;;;41.28;27.10;;;;;;;-1.02;76.86;98509.02;1649900;86;25746;-84
2021/01/30 02:30:47;;;;;;;41.50;25.97;;;;;;;-1.03;76.99;98513.83;1651937;84;25879;-85
2021/01/30 02:33:44;;;;;;;42.20;26.25;;;;;;;-1.06;77.18;98507.70;1660804;84;25965;-84
2021/01/30 02:36:38;;;;;;;37.10;25.65;;;;;;;-1.03;77.44;98505.66;1659648;84;25806;-85
2021/01/30 02:39:27;;;;;;;36.60;23.40;;;;;;;-0.99;77.38;98518.52;1659192;84;26262;-85
2021/01/30 02:42:11;;;;;;;35.88;25.17;;;;;;;-1.01;77.30;98515.76;1654726;84;26679;-84
2021/01/30 02:44:41;;;;;;;36.95;25.05;;;;;;;-1.14;77.22;98505.33;1659027;84;26697;-84
2021/01/30 02:47:12;;;;;;;42.03;26.95;;;;;;;-1.11;77.43;98505.53;1657209;84;25728;-85
2021/01/30 02:49:42;;;;;;;35.98;26.68;;;;;;;-1.10;77.53;98503.30;1657324;84;26476;-84
2021/01/30 02:52:20;;;;;;;37.67;25.37;;;;;;;-1.05;77.65;98500.33;1659550;84;26839;-84
2021/01/30 02:54:46;;;;;;;39.73;25.12;;;;;;;-1.01;77.80;98501.66;1657088;84;25847;-84
2021/01/30 02:57:15;;;;;;;39.50;25.12;;;;;;;-0.98;77.65;98507.34;1635035;84;25824;-85
2021/01/30 02:59:50;;;;;;;38.75;25.88;;;;;;;-1.03;77.58;98513.83;1659043;84;26471;-85
2021/01/30 03:02:19;;;;;;;40.12;26.23;;;;;;;-1.08;77.59;98497.56;1660047;84;26113;-85
2021/01/30 03:04:47;;;;;;;37.78;26.40;;;;;;;-1.10;77.66;98488.39;1634658;86;26010;-85
2021/01/30 03:07:48;;;;;;;35.78;24.35;;;;;;;-1.07;78.00;98499.17;1656413;84;25828;-85
2021/01/30 03:10:36;;;;;;;34.65;23.70;;;;;;;-1.03;77.99;98503.57;1658649;84;25855;-85
2021/01/30 03:13:26;;;;;;;35.23;24.60;;;;;;;-1.02;77.99;98507.74;1659257;84;26395;-85
2021/01/30 03:16:03;;;;;;;37.55;25.30;;;;;;;-1.06;78.01;98506.41;1660017;84;25749;-85
2021/01/30 03:18:36;;;;;;;35.15;24.80;;;;;;;-1.06;78.11;98503.37;1662228;84;25898;-85
2021/01/30 03:21:13;;;;;;;36.53;24.82;;;;;;;-1.07;78.07;98502.21;1660017;84;25966;-85
2021/01/30 03:23:39;;;;;;;37.80;27.30;;;;;;;-1.13;77.98;98503.09;1657838;85;25851;-85
2021/01/30 03:26:11;;;;;;;39.40;27.27;;;;;;;-1.17;78.10;98498.39;1659338;84;26360;-85
2021/01/30 03:28:39;;;;;;;39.00;27.90;;;;;;;-1.14;78.30;98498.13;1660167;84;26399;-85
2021/01/30 03:31:05;;;;;;;44.13;27.82;;;;;;;-1.14;78.36;98492.99;1659886;84;26691;-85
2021/01/30 03:33:32;;;;;;;40.35;27.67;;;;;;;-1.13;78.40;98494.13;1659780;84;25870;-85
2021/01/30 03:35:58;;;;;;;41.73;29.40;;;;;;;-1.11;78.57;98502.97;1632740;86;25874;-84
2021/01/30 03:38:25;;;;;;;42.65;28.55;;;;;;;-1.00;78.83;98502.81;1633557;84;27088;-84
2021/01/30 03:40:51;;;;;;;43.68;29.10;;;;;;;-0.89;78.76;98505.70;1661890;84;25756;-85
2021/01/30 03:43:17;;;;;;;38.17;27.17;;;;;;;-0.87;78.49;98499.13;1658393;84;25841;-84
2021/01/30 03:45:43;;;;;;;43.28;29.20;;;;;;;-0.90;78.46;98500.25;1659219;84;26529;-85
2021/01/30 03:48:10;;;;;;;41.25;27.85;;;;;;;-0.85;78.56;98498.53;1658992;84;26318;-84
2021/01/30 03:50:36;;;;;;;39.42;28.07;;;;;;;-0.82;78.62;98496.52;1662980;84;26161;-85
2021/01/30 03:53:06;;;;;;;43.15;28.40;;;;;;;-0.78;78.59;98497.84;1660376;84;25922;-85
2021/01/30 03:55:32;;;;;;;35.98;26.95;;;;;;;-0.76;78.55;98487.45;1661773;84;26031;-85
2021/01/30 03:57:58;;;;;;;40.80;28.55;;;;;;;-0.70;78.66;98481.77;1659203;84;25995;-85
2021/01/30 04:00:25;;;;;;;38.10;27.22;;;;;;;-0.68;78.58;98483.72;1658107;84;26817;-84
2021/01/30 04:02:52;;;;;;;44.42;28.70;;;;;;;-0.65;78.56;98480.07;1659361;84;26696;-85
2021/01/30 04:05:23;;;;;;;42.95;29.15;;;;;;;-0.66;78.50;98479.23;1663344;84;26006;-85
2021/01/30 04:07:51;;;;;;;44.23;29.27;;;;;;;-0.61;78.54;98478.83;1661254;84;25468;-85
2021/01/30 04:10:22;;;;;;;44.10;31.15;;;;;;;-0.64;78.39;98482.95;1659993;84;25595;-84
2021/01/30 04:12:48;;;;;;;45.88;29.98;;;;;;;-0.71;78.19;98483.97;1660228;84;25911;-85
2021/01/30 04:15:23;;;;;;;43.80;29.72;;;;;;;-0.74;78.43;98485.54;1659688;84;25643;-85
2021/01/30 04:17:49;;;;;;;45.20;29.77;;;;;;;-0.70;78.66;98474.88;1660806;84;25652;-85
2021/01/30 04:20:17;;;;;;;51.08;32.58;;;;;;;-0.62;78.70;98479.30;1658973;84;26591;-85
2021/01/30 04:22:44;;;;;;;54.50;34.92;;;;;;;-0.63;78.51;98482.00;1658687;84;25733;-85
2021/01/30 04:25:14;;;;;;;53.98;34.13;;;;;;;-0.62;78.51;98482.35;1659476;84;25812;-84
2021/01/30 04:27:41;;;;;;;60.00;37.70;;;;;;;-0.61;78.58;98480.91;1661448;84;25861;-85
2021/01/30 04:30:09;;;;;;;58.45;36.38;;;;;;;-0.55;78.63;98479.54;1661847;84;25716;-84
2021/01/30 04:32:35;;;;;;;55.23;35.70;;;;;;;-0.51;78.60;98474.47;1661415;84;25515;-85
2021/01/30 04:35:02;;;;;;;50.08;33.67;;;;;;;-0.48;78.55;98471.14;1661858;84;26456;-85
2021/01/30 04:37:28;;;;;;;51.58;32.28;;;;;;;-0.46;78.50;98469.73;1659613;84;26773;-85
2021/01/30 04:39:54;;;;;;;51.13;32.67;;;;;;;-0.47;78.46;98470.18;1658494;84;26576;-83
2021/01/30 04:42:29;;;;;;;48.02;29.65;;;;;;;-0.48;78.41;98466.01;1658615;84;25856;-84
2021/01/30 04:45:07;;;;;;;43.87;28.62;;;;;;;-0.49;78.35;98465.69;1657981;84;25905;-84
2021/01/30 04:47:57;;;;;;;42.40;29.10;;;;;;;-0.52;78.32;98462.13;1660112;84;26612;-83
2021/01/30 04:50:37;;;;;;;41.92;29.95;;;;;;;-0.54;78.35;98460.65;1657614;84;26374;-84
2021/01/30 04:53:55;;;;;;;43.58;27.73;;;;;;;-0.55;78.35;98452.59;1643740;85;27342;-85
2021/01/30 04:56:46;;;;;;;44.85;30.75;;;;;;;-0.57;78.33;98459.66;1645963;85;25797;-85
2021/01/30 04:59:32;;;;;;;45.12;30.02;;;;;;;-0.61;78.36;98460.39;1646588;85;25621;-84
2021/01/30 05:02:03;;;;;;;47.43;30.20;;;;;;;-0.60;78.39;98451.77;1642152;85;25814;-84
2021/01/30 05:04:41;;;;;;;45.40;29.95;;;;;;;-0.66;78.27;98454.87;1644642;85;25639;-85
2021/01/30 05:07:27;;;;;;;41.63;28.02;;;;;;;-0.65;78.51;98453.94;1643460;85;25931;-84
2021/01/30 05:09:59;;;;;;;42.67;28.20;;;;;;;-0.66;78.40;98453.58;1644147;85;25749;-85
2021/01/30 05:13:01;;;;;;;38.80;28.07;;;;;;;-0.63;78.58;98456.34;1645598;85;25647;-85
2021/01/30 05:15:54;;;;;;;43.75;30.15;;;;;;;-0.58;78.53;98452.89;1643530;85;25814;-85
2021/01/30 05:18:31;;;;;;;41.75;29.75;;;;;;;-0.62;78.41;98450.28;1642584;85;25774;-85
2021/01/30 05:21:15;;;;;;;46.35;30.17;;;;;;;-0.68;78.29;98451.66;1623426;85;27150;-85
2021/01/30 05:23:44;;;;;;;53.70;33.38;;;;;;;-0.74;78.21;98458.16;1643495;85;25737;-84
2021/01/30 05:26:47;;;;;;;48.97;31.40;;;;;;;-0.81;78.26;98453.24;1643326;85;25886;-84
2021/01/30 05:29:30;;;;;;;45.03;30.15;;;;;;;-0.88;78.27;98456.02;1645103;85;25915;-85
2021/01/30 05:32:20;;;;;;;51.63;31.27;;;;;;;-0.90;78.46;98448.48;1643014;85;25870;-84
2021/01/30 05:34:57;;;;;;;50.48;30.85;;;;;;;-0.92;78.53;98452.94;1643409;85;25796;-85
2021/01/30 05:37:38;;;;;;;43.70;31.23;;;;;;;-0.92;78.61;98449.09;1623050;87;26562;-84
2021/01/30 05:40:16;;;;;;;;;;;;;;;-0.90;78.65;98443.84;1646209;85;25990;-84
2021/01/30 05:42:57;;;;;;;48.20;30.92;;;;;;;-0.89;78.62;98446.72;1642867;85;26677;-85
2021/01/30 05:45:47;;;;;;;48.52;31.65;;;;;;;-0.90;78.63;98442.55;1644125;85;25768;-85
2021/01/30 05:48:17;;;;;;;;;;;;;;;-0.91;78.75;98439.16;1647358;85;25856;-84
2021/01/30 05:51:00;;;;;;;43.52;29.07;;;;;;;-0.88;78.83;98438.07;1645933;85;25849;-84
2021/01/30 05:53:28;;;;;;;48.08;31.68;;;;;;;-0.88;78.81;98439.35;1658506;84;25863;-85
2021/01/30 05:55:55;;;;;;;43.00;30.62;;;;;;;-0.85;78.88;98442.91;1659612;84;26377;-84
2021/01/30 05:58:24;;;;;;;39.58;27.42;;;;;;;-0.83;78.80;98439.75;1660334;84;26053;-85
2021/01/30 06:01:28;;;;;;;41.20;28.93;;;;;;;-0.82;78.75;98435.42;1659205;84;25884;-85
2021/01/30 06:04:10;;;;;;;38.45;26.55;;;;;;;-0.82;78.80;98438.81;1659558;84;25972;-85
2021/01/30 06:06:53;;;;;;;41.48;29.82;;;;;;;-0.82;78.68;98440.09;1659667;83;25534;-85
2021/01/30 06:09:41;;;;;;;41.98;29.37;;;;;;;-0.85;78.67;98435.70;1659622;84;25930;-86
2021/01/30 06:12:32;;;;;;;40.55;27.40;;;;;;;-0.83;78.69;98432.53;1658158;84;25968;-85
2021/01/30 06:15:16;;;;;;;39.58;27.22;;;;;;;-0.90;78.69;98427.17;1658679;84;25971;-85
2021/01/30 06:17:43;;;;;;;40.83;27.75;;;;;;;-0.83;78.84;98433.81;1660798;83;26745;-85
2021/01/30 06:20:23;;;;;;;39.15;26.73;;;;;;;-0.80;78.74;98433.05;1659535;84;25908;-85
2021/01/30 06:23:11;;;;;;;43.48;28.30;;;;;;;-0.79;78.81;98437.70;1657690;84;26535;-85
2021/01/30 06:25:42;;;;;;;42.15;28.65;;;;;;;-0.76;78.74;98431.03;1658346;84;26615;-85
2021/01/30 06:28:25;;;;;;;42.85;29.55;;;;;;;-0.76;78.78;98432.31;1661090;84;25824;-86
2021/01/30 06:30:52;;;;;;;46.53;29.60;;;;;;;-0.75;78.68;98438.57;1658975;84;26518;-85
2021/01/30 06:33:32;;;;;;;42.13;29.27;;;;;;;-0.74;78.66;98445.34;1658228;84;26487;-84
2021/01/30 06:36:19;;;;;;;43.17;29.55;;;;;;;-0.74;78.65;98439.37;1633120;84;25929;-85
2021/01/30 06:39:07;;;;;;;42.85;29.07;;;;;;;-0.78;78.64;98440.14;1645597;84;25933;-85
2021/01/30 06:41:35;;;;;;;45.58;29.07;;;;;;;-0.81;78.72;98441.70;1659549;84;26632;-85
2021/01/30 06:44:22;;;;;;;43.73;28.15;;;;;;;-0.85;78.80;98441.63;1658590;84;25841;-85
2021/01/30 06:47:15;;;;;;;51.10;30.25;;;;;;;-0.87;78.73;98440.16;1659284;84;25773;-84
2021/01/30 06:49:57;;;;;;;47.67;29.75;;;;;;;-0.98;78.71;98441.96;1659511;84;26734;-86
2021/01/30 06:52:30;;;;;;;48.40;30.57;;;;;;;-1.04;78.92;98435.28;1654879;84;25816;-85
2021/01/30 06:55:12;;;;;;;50.38;30.82;;;;;;;-0.99;79.19;98437.77;1649045;85;27068;-85
2021/01/30 06:58:01;;;;;;;45.52;31.77;;;;;;;-0.96;79.18;98437.95;1649507;85;25835;-86
2021/01/30 07:00:35;;;;;;;45.05;29.63;;;;;;;-0.93;79.21;98442.36;1629995;85;26806;-85
2021/01/30 07:03:30;;;;;;;49.63;32.65;;;;;;;-0.90;79.20;98441.27;1648327;85;25788;-85
2021/01/30 07:06:13;;;;;;;50.95;32.85;;;;;;;-0.90;79.11;98452.81;1649237;85;25906;-85
2021/01/30 07:08:54;;;;;;;64.22;37.67;;;;;;;-0.90;79.16;98445.12;1648241;85;25844;-85
2021/01/30 07:11:45;;;;;;;61.42;35.73;;;;;;;-0.80;79.35;98439.94;1648596;85;25599;-84
2021/01/30 07:14:52;;;;;;;58.75;37.40;;;;;;;-0.75;79.32;98445.46;1649430;85;25882;-85
2021/01/30 07:17:45;;;;;;;61.73;36.53;;;;;;;-0.70;79.27;98436.39;1649122;85;25844;-85
2021/01/30 07:20:29;;;;;;;59.85;36.48;;;;;;;-0.61;79.34;98433.94;1649450;85;26482;-84
2021/01/30 07:23:03;;;;;;;52.88;33.00;;;;;;;-0.56;79.30;98440.25;1647785;85;25824;-84
2021/01/30 07:25:53;;;;;;;51.37;35.65;;;;;;;-0.54;79.17;98437.08;1635442;85;25828;-85
2021/01/30 07:28:36;;;;;;;60.88;39.30;;;;;;;-0.53;79.16;98439.16;1648561;85;26051;-85
2021/01/30 07:31:36;;;;;;;63.45;41.02;;;;;;;-0.53;79.15;98439.97;1647753;85;25389;-84
2021/01/30 07:34:28;;;;;;;71.53;45.60;;;;;;;-0.52;79.14;98441.60;1629513;85;25589;-84
2021/01/30 07:37:20;;;;;;;63.65;41.13;;;;;;;-0.52;79.09;98439.48;1649281;85;26699;-85
2021/01/30 07:40:04;;;;;;;60.10;37.15;;;;;;;-0.55;79.00;98432.88;1648128;85;25930;-85
2021/01/30 07:43:00;;;;;;;58.85;39.05;;;;;;;-0.57;79.05;98432.23;1629818;86;26541;-85
2021/01/30 07:45:38;;;;;;;56.75;38.28;;;;;;;-0.57;79.06;98434.80;1628731;85;25881;-85
2021/01/30 07:48:27;;;;;;;61.70;39.05;;;;;;;-0.54;79.18;98441.41;1648205;85;25990;-85
2021/01/30 07:50:58;;;;;;;62.70;39.38;;;;;;;-0.50;79.12;98435.02;1648869;85;25863;-84
2021/01/30 07:53:27;;;;;;;58.55;38.60;;;;;;;-0.47;79.20;98430.89;1648696;85;26467;-85
2021/01/30 07:56:20;;;;;;;60.08;37.58;;;;;;;-0.46;79.11;98428.20;1648254;85;26446;-85
2021/01/30 07:59:19;;;;;;;61.42;39.33;;;;;;;-0.44;79.10;98429.31;1649087;85;26687;-85
2021/01/30 08:02:05;;;;;;;65.67;40.10;;;;;;;-0.39;79.19;98433.55;1648677;85;25762;-84
2021/01/30 08:05:10;;;;;;;62.17;38.88;;;;;;;-0.40;79.01;98436.27;1647959;85;25810;-85
2021/01/30 08:08:09;;;;;;;57.58;37.98;;;;;;;-0.38;79.13;98437.75;1650296;85;26097;-85
2021/01/30 08:10:56;;;;;;;66.33;43.02;;;;;;;-0.29;79.24;98440.73;1644792;85;26262;-85
2021/01/30 08:13:49;;;;;;;60.50;38.85;;;;;;;-0.34;78.77;98434.41;1644310;85;26448;-86
2021/01/30 08:16:36;;;;;;;52.75;35.30;;;;;;;-0.39;78.80;98436.59;1648010;85;25837;-85
2021/01/30 08:19:07;;;;;;;50.15;33.73;;;;;;;-0.41;78.83;98432.08;1647380;85;25895;-85
2021/01/30 08:21:45;;;;;;;63.42;39.50;;;;;;;-0.43;78.76;98436.09;1627887;85;25833;-85
2021/01/30 08:24:31;;;;;;;56.05;37.63;;;;;;;-0.46;78.75;98437.17;1647368;85;25832;-85
2021/01/30 08:27:02;;;;;;;44.30;29.82;;;;;;;-0.42;78.93;98433.04;1648304;85;26370;-85
2021/01/30 08:29:40;;;;;;;44.77;31.37;;;;;;;-0.41;78.85;98426.49;1648312;85;25828;-85
2021/01/30 08:32:30;;;;;;;45.60;32.80;;;;;;;-0.37;78.90;98430.85;1649461;85;25867;-85
2021/01/30 08:35:23;;;;;;;60.75;39.45;;;;;;;-0.35;78.79;98428.48;1648062;85;26447;-85
2021/01/30 08:38:19;;;;;;;58.15;39.78;;;;;;;-0.30;78.77;98431.42;1648608;84;25923;-85
2021/01/30 08:40:56;;;;;;;55.60;35.25;;;;;;;-0.33;78.73;98427.03;1647899;85;25828;-85
2021/01/30 08:43:48;;;;;;;61.95;39.40;;;;;;;-0.24;79.03;98426.19;1646034;85;26332;-85
2021/01/30 08:46:39;;;;;;;59.67;38.35;;;;;;;-0.24;78.69;98427.00;1647977;85;25936;-85
2021/01/30 08:49:20;;;;;;;60.33;39.60;;;;;;;-0.20;78.76;98429.27;1647360;85;25847;-88
2021/01/30 08:52:17;;;;;;;48.98;33.25;;;;;;;-0.29;78.67;98430.95;1648655;84;25886;-88
2021/01/30 08:54:47;;;;;;;48.73;33.33;;;;;;;-0.35;78.38;98431.05;1657434;84;25713;-88
2021/01/30 08:57:37;;;;;;;47.83;33.35;;;;;;;-0.43;78.16;98427.58;1660900;84;25885;-87
2021/01/30 09:00:14;;;;;;;49.35;34.83;;;;;;;-0.47;78.35;98429.61;1657362;84;26479;-88
2021/01/30 09:02:46;;;;;;;65.05;39.35;;;;;;;-0.41;78.55;98430.80;1654731;84;25965;-87
2021/01/30 09:05:24;;;;;;;59.38;41.73;;;;;;;-0.37;78.57;98430.85;1657949;84;25887;-88
2021/01/30 09:07:56;;;;;;;50.05;35.45;;;;;;;-0.31;78.73;98433.64;1637089;84;26331;-88
2021/01/30 09:10:33;;;;;;;43.70;32.10;;;;;;;-0.22;78.76;98433.25;1658425;84;25841;-88
2021/01/30 09:13:11;;;;;;;48.68;32.40;;;;;;;-0.10;78.61;98437.73;1662145;84;25875;-88
2021/01/30 09:15:48;;;;;;;43.87;31.42;;;;;;;-0.10;78.11;98444.15;1660246;84;26067;-89
2021/01/30 09:18:31;;;;;;;44.83;30.45;;;;;;;-0.20;77.46;98440.34;1658981;84;25973;-88
2021/01/30 09:21:11;;;;;;;42.00;29.92;;;;;;;-0.25;77.68;98439.51;1659546;84;25932;-88
2021/01/30 09:24:09;;;;;;;40.23;29.57;;;;;;;-0.26;77.49;98437.87;1657655;84;25729;-91
2021/01/30 09:26:49;;;;;;;40.58;28.67;;;;;;;-0.28;77.45;98442.81;1658804;84;25897;-88
2021/01/30 09:29:20;;;;;;;39.48;29.05;;;;;;;-0.33;77.46;98448.40;1659360;84;25981;-89
2021/01/30 09:31:50;;;;;;;45.43;31.52;;;;;;;-0.31;77.63;98443.91;1659903;84;25849;-90
2021/01/30 09:34:18;;;;;;;107.00;89.07;;;;;;;-0.24;78.06;98437.27;1657944;84;34890;-89
2021/01/30 09:36:52;;;;;;;48.20;34.55;;;;;;;-0.13;78.17;98441.39;1659703;84;25886;-89
2021/01/30 09:39:37;;;;;;;41.08;27.58;;;;;;;-0.15;77.46;98446.33;1658306;84;26623;-89
2021/01/30 09:42:17;;;;;;;42.33;26.68;;;;;;;-0.27;77.10;98451.67;1658261;84;25884;-89
2021/01/30 09:44:45;;;;;;;37.00;27.17;;;;;;;-0.41;76.91;98448.30;1633336;85;31359;-87
2021/01/30 09:47:22;;;;;;;42.75;29.57;;;;;;;-0.48;77.30;98449.33;1658424;84;25742;-87
2021/01/30 09:49:58;;;;;;;39.20;25.55;;;;;;;-0.47;77.48;98453.98;1634937;84;25871;-87
2021/01/30 09:52:25;;;;;;;45.40;31.00;;;;;;;-0.53;77.34;98446.86;1659092;84;25812;-87
2021/01/30 09:54:55;;;;;;;73.37;45.08;;;;;;;-0.58;77.75;98454.17;1651945;85;25692;-86
2021/01/30 09:57:25;;;;;;;81.12;47.62;;;;;;;-0.58;77.92;98452.89;1650923;85;25723;-87
2021/01/30 09:59:56;;;;;;;58.58;36.75;;;;;;;-0.59;77.82;98455.13;1654365;85;25622;-87
2021/01/30 10:02:24;;;;;;;56.28;30.17;;;;;;;-0.65;77.82;98456.50;1631404;85;25462;-87
2021/01/30 10:05:13;;;;;;;50.65;33.08;;;;;;;-0.77;77.88;98468.67;1650926;85;25956;-87
2021/01/30 10:07:40;;;;;;;41.92;27.48;;;;;;;-0.76;78.46;98466.46;1651192;85;25585;-86
2021/01/30 10:10:28;;;;;;;56.70;35.52;;;;;;;-0.78;78.48;98467.06;1649849;85;25808;-88
2021/01/30 10:12:57;;;;;;;44.55;28.90;;;;;;;-0.77;78.44;98461.45;1648573;85;26530;-88
2021/01/30 10:15:36;;;;;;;50.00;33.45;;;;;;;-0.82;78.35;98472.16;1638053;85;25962;-88
2021/01/30 10:18:19;;;;;;;41.73;27.02;;;;;;;-0.85;78.54;98472.89;1646264;85;25890;-89
2021/01/30 10:20:52;;;;;;;42.35;28.23;;;;;;;-0.85;78.51;98478.02;1650066;86;25921;-86
2021/01/30 10:23:33;;;;;;;35.45;25.23;;;;;;;-0.85;78.78;98483.95;1651072;85;25886;-88
2021/01/30 10:26:08;;;;;;;38.73;25.37;;;;;;;-0.91;78.67;98475.53;1651069;85;25857;-87
2021/01/30 10:28:49;;;;;;;36.40;25.52;;;;;;;-0.95;78.78;98471.64;1651777;85;25782;-85
2021/01/30 10:31:20;;;;;;;41.08;27.42;;;;;;;-1.00;78.84;98468.68;1644419;85;26854;-88
2021/01/30 10:33:52;;;;;;;38.33;24.50;;;;;;;-1.00;79.00;98473.81;1633147;85;25856;-86
2021/01/30 10:36:20;;;;;;;38.45;26.87;;;;;;;-0.97;79.27;98482.03;1649532;85;26484;-87
2021/01/30 10:38:49;;;;;;;35.98;24.80;;;;;;;-1.02;79.11;98482.11;1651718;84;26708;-87
2021/01/30 10:41:19;;;;;;;38.30;25.17;;;;;;;-1.00;79.22;98477.66;1648733;85;25952;-86
2021/01/30 10:43:50;;;;;;;36.98;25.00;;;;;;;-1.01;79.33;98473.45;1650054;85;25888;-88
2021/01/30 10:46:19;;;;;;;;;;;;;;;-1.00;79.25;98477.17;1652755;85;26613;-86
2021/01/30 10:48:47;;;;;;;34.55;21.87;;;;;;;-1.00;79.34;98484.06;1647768;85;25974;-85
2021/01/30 10:51:23;;;;;;;42.50;27.40;;;;;;;-1.03;79.28;98480.50;1648181;85;25856;-81
2021/01/30 10:54:10;;;;;;;34.78;20.60;;;;;;;-1.01;79.60;98475.57;1655578;84;26412;-85
2021/01/30 10:56:36;;;;;;;28.42;19.30;;;;;;;-1.03;79.25;98482.58;1662628;84;25812;-84
2021/01/30 10:59:08;;;;;;;34.23;20.92;;;;;;;-1.05;79.33;98477.26;1660927;84;26699;-85
2021/01/30 11:01:34;;;;;;;30.65;20.37;;;;;;;-1.03;79.49;98472.81;1654785;84;25824;-85
2021/01/30 11:04:03;;;;;;;34.23;22.67;;;;;;;-1.00;79.57;98478.45;1658862;84;25789;-85
2021/01/30 11:06:47;;;;;;;38.30;27.60;;;;;;;-0.98;79.67;98481.70;1661335;84;25817;-85
2021/01/30 11:09:28;;;;;;;28.23;20.40;;;;;;;-0.95;79.77;98483.98;1659097;84;27407;-84
2021/01/30 11:12:17;;;;;;;32.78;22.35;;;;;;;-0.89;79.76;98486.47;1658173;84;26796;-85
2021/01/30 11:14:44;;;;;;;32.70;21.75;;;;;;;-0.89;79.79;98486.47;1649491;84;25978;-84
2021/01/30 11:17:33;;;;;;;37.15;24.92;;;;;;;-0.85;79.77;98489.08;1631316;86;25801;-85
2021/01/30 11:20:00;;;;;;;33.05;24.05;;;;;;;-0.85;79.73;98493.40;1629593;86;25731;-85
2021/01/30 11:22:28;;;;;;;35.40;22.62;;;;;;;-0.84;79.88;98491.99;1628819;85;26503;-85
2021/01/30 11:25:14;;;;;;;32.78;22.70;;;;;;;-0.81;79.92;98493.00;1630479;86;26441;-85
2021/01/30 11:27:49;;;;;;;35.70;23.12;;;;;;;-0.84;79.86;98497.60;1628769;86;25859;-84
2021/01/30 11:30:32;;;;;;;38.25;25.25;;;;;;;-0.87;79.99;98496.12;1632203;86;25831;-84
2021/01/30 11:33:14;;;;;;;34.92;25.12;;;;;;;-0.85;80.18;98495.48;1630774;86;25823;-85
2021/01/30 11:35:47;;;;;;;33.98;24.15;;;;;;;-0.85;80.17;98489.08;1629707;86;26309;-84
2021/01/30 11:38:18;;;;;;;36.17;24.10;;;;;;;-0.90;80.16;98488.70;1644975;85;25908;-84
2021/01/30 11:40:46;;;;;;;38.33;26.35;;;;;;;-0.93;80.37;98487.23;1646086;85;25726;-84
2021/01/30 11:43:13;;;;;;;36.95;26.00;;;;;;;-0.92;80.50;98496.52;1644369;85;26411;-85
2021/01/30 11:45:40;;;;;;;35.28;24.25;;;;;;;-0.86;80.64;98504.14;1643438;85;26087;-84
2021/01/30 11:48:07;;;;;;;32.95;22.75;;;;;;;-0.83;80.75;98504.34;1644709;85;25855;-85
2021/01/30 11:50:33;;;;;;;30.32;21.82;;;;;;;-0.76;80.81;98506.70;1642499;85;25863;-84
2021/01/30 11:53:13;;;;;;;33.40;23.80;;;;;;;-0.79;80.77;98507.78;1641242;85;26485;-84
2021/01/30 11:55:41;;;;;;;33.05;23.55;;;;;;;-0.84;80.80;98506.09;1642220;85;32858;-84
2021/01/30 11:58:08;;;;;;;37.78;24.75;;;;;;;-0.77;81.05;98506.34;1640353;85;26491;-84
2021/01/30 12:00:35;;;;;;;38.02;21.57;;;;;;;-0.72;81.20;98508.82;1636770;84;25793;-84